Time;durP1;ratioP1;P1;durP2;ratioP2;P2;SDS_P1;SDS_P2;PMS_P1;PMS_P2;Temp;Humidity;BMP_temperature;BMP_pressure;BME280_temperature;BME280_humidity;BME280_pressure;Samples;Min_cycle;Max_cycle;Signal;HPM_P1;HPM_P2
2021/12/06 00:00:02;;;;;;;1.00;0.80;;;-0.40;1.40;;;0.47;100.00;94481.30;647180;212;31591;-73
2021/12/06 00:02:43;;;;;;;1.20;0.60;;;-0.40;1.40;;;0.34;100.00;94478.91;645887;212;31625;-74
2021/12/06 00:05:28;;;;;;;1.00;0.60;;;-0.60;1.40;;;0.25;100.00;94481.88;639034;215;31651;-74
2021/12/06 00:08:10;;;;;;;0.80;0.52;;;-0.60;1.40;;;0.20;100.00;94477.18;647036;212;31699;-74
2021/12/06 00:10:52;;;;;;;0.65;0.62;;;-0.80;1.40;;;0.32;100.00;94477.52;617514;225;31836;-74
2021/12/06 00:13:35;;;;;;;2.20;0.60;;;-0.70;1.40;;;0.26;100.00;94478.09;648153;212;40809;-74
2021/12/06 00:16:18;;;;;;;1.02;0.80;;;-0.70;1.40;;;0.34;100.00;94481.47;642200;215;31504;-74
2021/12/06 00:21:33;;;;;;;0.70;0.60;;;-0.70;1.40;;;0.22;100.00;94485.55;647403;216;31823;-73
2021/12/06 00:24:14;;;;;;;0.60;0.57;;;-0.80;1.40;;;0.15;100.00;94483.00;646577;212;32177;-74
2021/12/06 00:29:36;;;;;;;1.23;1.08;;;-0.80;1.40;;;0.14;100.00;94484.98;647107;212;31488;-74
2021/12/06 00:32:17;;;;;;;0.50;0.40;;;-0.70;1.40;;;0.22;100.00;94483.95;646661;216;31742;-74
2021/12/06 00:35:56;;;;;;;0.80;0.80;;;-0.70;1.40;;;0.26;100.00;94483.21;619057;226;32129;-74
2021/12/06 00:38:37;;;;;;;0.40;0.40;;;-0.50;1.40;;;0.35;100.00;94487.91;647118;212;42098;-74
2021/12/06 00:41:19;;;;;;;0.70;0.60;;;-0.50;1.40;;;0.39;100.00;94489.23;619154;226;32013;-74
2021/12/06 00:44:06;;;;;;;0.50;0.50;;;-0.50;1.40;;;0.39;100.00;94491.58;646309;216;31557;-73
2021/12/06 00:46:46;;;;;;;1.00;0.90;;;-0.50;1.40;;;0.35;100.00;94492.23;645798;216;31537;-74
2021/12/06 00:49:28;;;;;;;0.60;0.60;;;-0.40;1.40;;;0.38;100.00;94492.00;647680;212;31590;-73
2021/12/06 00:52:09;;;;;;;0.90;0.60;;;-0.40;1.40;;;0.37;100.00;94490.75;646874;212;31645;-74
2021/12/06 00:54:52;;;;;;;1.30;0.47;;;-0.40;1.40;;;0.39;100.00;94493.34;647260;212;31560;-74
2021/12/06 00:57:35;;;;;;;0.60;0.60;;;-0.30;1.40;;;0.47;100.00;94499.84;645413;216;31525;-74
2021/12/06 01:00:17;;;;;;;1.00;0.60;;;-0.40;1.40;;;0.56;100.00;94501.75;646988;216;31536;-72
2021/12/06 01:02:58;;;;;;;1.20;0.80;;;-0.30;1.40;;;0.63;100.00;94502.08;632602;222;42836;-74
2021/12/06 01:05:40;;;;;;;0.52;0.40;;;-0.30;1.40;;;0.72;100.00;94510.56;647120;216;42736;-74
2021/12/06 01:08:22;;;;;;;0.60;0.50;;;-0.30;1.40;;;0.77;100.00;94510.33;646964;212;42708;-74
2021/12/06 01:11:04;;;;;;;0.95;0.85;;;-0.30;1.40;;;0.79;100.00;94508.41;647355;212;31666;-74
2021/12/06 01:13:45;;;;;;;0.60;0.60;;;-0.30;1.40;;;0.79;100.00;94516.57;618107;226;32252;-72
2021/12/06 01:16:30;;;;;;;0.70;0.70;;;-0.30;1.40;;;0.84;100.00;94521.00;619826;226;31861;-73
2021/12/06 01:19:12;;;;;;;0.85;0.55;;;-0.30;1.40;;;0.92;100.00;94523.50;647062;216;42119;-73
2021/12/06 01:22:08;;;;;;;1.10;0.82;;;-0.30;1.40;;;0.94;100.00;94528.39;616061;224;32087;-74
2021/12/06 01:24:42;;;;;;;0.63;0.47;;;-0.30;1.40;;;0.98;100.00;94534.84;647114;216;31492;-74
2021/12/06 01:41:29;;;;;;;0.47;0.40;;;-0.20;1.40;;;0.93;100.00;94564.00;646454;212;31484;-74
2021/12/06 01:44:16;;;;;;;0.50;0.40;;;-0.20;1.40;;;1.07;100.00;94568.73;641871;216;31489;-74
2021/12/06 01:47:03;;;;;;;1.30;1.20;;;-0.20;1.40;;;0.87;100.00;94569.02;647326;216;31559;-74
2021/12/06 01:49:45;;;;;;;1.37;1.27;;;-0.20;1.40;;;0.77;100.00;94570.77;646172;216;42137;-74
2021/12/06 01:52:27;;;;;;;1.20;0.60;;;-0.20;1.40;;;0.81;100.00;94568.00;645729;216;31562;-73
2021/12/06 01:55:10;;;;;;;1.50;1.20;;;-0.10;1.40;;;0.77;100.00;94566.39;645827;216;31520;-74
2021/12/06 01:57:53;;;;;;;1.90;0.82;;;-0.20;1.40;;;0.73;100.00;94570.84;647297;216;35504;-74
2021/12/06 02:00:38;;;;;;;1.20;0.80;;;-0.10;1.40;;;0.96;100.00;94574.44;645666;216;31771;-74
2021/12/06 02:03:22;;;;;;;0.70;0.70;;;-0.10;1.40;;;1.07;100.00;94572.95;645989;212;32581;-74
2021/12/06 02:06:04;;;;;;;0.80;0.70;;;-0.10;1.40;;;0.82;100.00;94571.41;647272;216;31627;-73
2021/12/06 02:08:48;;;;;;;0.90;0.70;;;-0.10;1.40;;;0.86;100.00;94573.39;648023;212;31573;-73
2021/12/06 02:11:33;;;;;;;1.45;1.02;;;-0.10;1.40;;;1.04;100.00;94575.08;646588;216;31576;-74
2021/12/06 02:14:32;;;;;;;2.17;2.08;;;0.00;1.40;;;1.07;100.00;94575.83;615135;226;31907;-74
2021/12/06 02:17:15;;;;;;;0.80;0.80;;;0.00;1.40;;;1.06;100.00;94584.05;646301;212;42882;-75
2021/12/06 02:19:54;;;;;;;2.20;1.00;;;0.00;1.40;;;0.98;100.00;94584.53;647210;212;31842;-74
2021/12/06 02:22:35;;;;;;;1.20;0.87;;;0.00;1.40;;;1.06;100.00;94579.14;646217;216;35465;-74
2021/12/06 02:25:18;;;;;;;2.20;1.50;;;0.00;1.40;;;1.12;100.00;94583.87;647510;216;42044;-73
2021/12/06 02:28:01;;;;;;;1.20;1.10;;;0.00;1.40;;;1.26;100.00;94589.42;646152;216;31568;-74
2021/12/06 02:30:43;;;;;;;1.10;1.00;;;0.10;1.40;;;1.26;100.00;94592.25;646590;216;31555;-75
2021/12/06 02:35:52;;;;;;;1.48;1.20;;;0.10;1.40;;;1.16;100.00;94592.52;646735;216;31603;-73
2021/12/06 02:38:33;;;;;;;1.30;1.20;;;0.10;1.40;;;1.35;100.00;94594.83;646643;216;31532;-74
2021/12/06 02:41:18;;;;;;;1.30;1.10;;;0.20;1.40;;;1.36;100.00;94590.30;646593;216;32123;-73
2021/12/06 02:43:59;;;;;;;2.30;1.80;;;0.20;1.40;;;1.37;100.00;94590.67;618824;222;43071;-74
2021/12/06 02:46:41;;;;;;;1.90;1.05;;;0.20;1.40;;;1.40;100.00;94594.67;647065;216;31596;-74
2021/12/06 02:49:25;;;;;;;2.05;1.30;;;0.20;1.40;;;1.38;100.00;94600.92;646447;216;31580;-74
2021/12/06 02:52:07;;;;;;;1.58;1.48;;;0.20;1.40;;;1.31;100.00;94599.43;645847;212;31687;-74
2021/12/06 02:54:56;;;;;;;2.20;2.00;;;0.10;1.40;;;1.31;100.00;94604.02;647056;216;31588;-74
2021/12/06 02:57:37;;;;;;;1.80;1.70;;;0.20;1.40;;;1.27;100.00;94603.67;647483;216;31644;-74
2021/12/06 03:00:18;;;;;;;1.35;1.20;;;0.20;1.40;;;1.28;100.00;94603.14;618287;226;32105;-74
2021/12/06 03:03:00;;;;;;;1.42;1.08;;;0.10;1.40;;;1.32;100.00;94611.60;646308;216;31558;-74
2021/12/06 03:05:42;;;;;;;2.72;2.53;;;0.10;1.40;;;1.21;100.00;94604.05;618807;226;31851;-74
2021/12/06 03:08:38;;;;;;;2.00;1.48;;;0.10;1.40;;;1.15;100.00;94616.32;646183;212;31797;-74
2021/12/06 03:11:19;;;;;;;2.70;1.00;;;0.10;1.40;;;1.19;100.00;94610.72;647176;212;31545;-74
2021/12/06 03:14:01;;;;;;;1.40;1.30;;;0.10;1.40;;;1.21;100.00;94614.14;647124;216;31554;-75
2021/12/06 03:16:43;;;;;;;2.17;2.08;;;0.10;1.40;;;1.03;100.00;94612.71;646117;216;31591;-74
2021/12/06 03:19:27;;;;;;;3.53;1.40;;;0.10;1.40;;;0.96;100.00;94612.33;646985;216;31533;-74
2021/12/06 03:22:09;;;;;;;1.37;1.02;;;0.10;1.40;;;0.88;100.00;94614.74;646499;212;31624;-74
2021/12/06 03:24:50;;;;;;;0.70;0.70;;;0.00;1.40;;;0.83;100.00;94614.36;618836;226;32087;-74
2021/12/06 03:27:32;;;;;;;2.30;2.10;;;0.00;1.40;;;0.92;100.00;94618.59;646689;216;31678;-73
2021/12/06 03:30:14;;;;;;;1.70;1.40;;;0.00;1.40;;;0.91;100.00;94625.05;647600;216;32090;-73
2021/12/06 03:32:55;;;;;;;2.30;2.20;;;0.00;1.40;;;0.90;100.00;94626.64;646454;212;31672;-74
2021/12/06 03:35:54;;;;;;;1.40;1.30;;;0.00;1.40;;;0.93;100.00;94631.08;646914;212;43509;-74
2021/12/06 03:38:36;;;;;;;2.03;1.23;;;0.10;1.40;;;1.05;100.00;94637.20;646814;212;31600;-75
2021/12/06 03:41:18;;;;;;;3.80;1.30;;;0.10;1.40;;;1.06;100.00;94637.53;647141;216;31594;-74
2021/12/06 03:44:00;;;;;;;2.22;1.55;;;0.10;1.40;;;1.14;100.00;94643.38;646409;216;31558;-74
2021/12/06 03:46:42;;;;;;;4.25;1.70;;;0.10;1.40;;;1.10;100.00;94644.52;646443;212;31543;-74
2021/12/06 03:51:58;;;;;;;2.70;1.20;;;0.10;1.40;;;1.18;100.00;94650.91;619551;226;31890;-73
2021/12/06 03:54:40;;;;;;;1.98;1.45;;;0.10;1.40;;;1.29;100.00;94653.75;645878;212;31573;-74
2021/12/06 03:57:21;;;;;;;1.80;1.40;;;0.20;1.40;;;1.25;100.00;94655.56;648111;212;31509;-74
2021/12/06 04:00:03;;;;;;;4.80;2.10;;;0.20;1.40;;;1.11;100.00;94657.92;619998;222;31895;-74
2021/12/06 04:02:45;;;;;;;1.58;1.48;;;0.20;1.40;;;1.03;100.00;94659.14;645107;212;31609;-74
2021/12/06 04:05:28;;;;;;;1.87;1.00;;;0.10;1.40;;;1.02;100.00;94664.53;648205;216;31549;-74
2021/12/06 04:08:08;;;;;;;2.55;1.37;;;0.10;1.40;;;1.05;100.00;94668.22;647638;212;31842;-74
2021/12/06 04:10:50;;;;;;;2.10;1.90;;;0.10;1.40;;;1.09;100.00;94666.63;646860;216;31843;-74
2021/12/06 04:13:32;;;;;;;3.33;2.05;;;0.20;1.40;;;1.13;100.00;94668.90;646494;216;31544;-74
2021/12/06 04:16:14;;;;;;;1.12;1.12;;;0.20;1.40;;;1.14;100.00;94670.92;646277;216;42124;-74
2021/12/06 04:19:05;;;;;;;1.25;1.15;;;0.20;1.40;;;1.17;100.00;94675.05;645967;216;32132;-75
2021/12/06 04:21:47;;;;;;;2.90;1.70;;;0.20;1.40;;;1.34;100.00;94676.11;647443;216;31735;-74
2021/12/06 04:24:31;;;;;;;2.00;1.57;;;0.30;1.40;;;1.36;100.00;94681.23;618917;226;31906;-74
2021/12/06 04:27:14;;;;;;;1.90;1.00;;;0.30;1.40;;;1.37;100.00;94680.80;618797;226;31965;-74
2021/12/06 04:29:58;;;;;;;6.20;1.80;;;0.30;1.40;;;1.36;100.00;94682.83;646667;216;31580;-74
2021/12/06 04:32:39;;;;;;;4.50;1.83;;;0.30;1.40;;;1.29;100.00;94691.08;645822;215;35825;-74
2021/12/06 04:35:51;;;;;;;2.97;1.92;;;0.30;1.40;;;1.31;100.00;94687.10;646691;212;31586;-73
2021/12/06 04:38:33;;;;;;;4.70;2.58;;;0.30;1.40;;;1.36;100.00;94686.89;646910;216;31545;-73
2021/12/06 04:41:14;;;;;;;2.00;1.85;;;0.30;1.40;;;1.31;100.00;94690.20;646422;212;31592;-74
2021/12/06 04:43:56;;;;;;;3.95;2.28;;;0.20;1.40;;;1.42;100.00;94693.95;647035;216;31734;-74
2021/12/06 04:46:38;;;;;;;2.15;1.95;;;0.20;1.40;;;1.36;100.00;94696.13;646104;212;31657;-74
2021/12/06 04:49:20;;;;;;;3.40;1.95;;;0.20;1.40;;;1.45;100.00;94700.20;645851;216;31834;-74
2021/12/06 04:52:01;;;;;;;2.90;1.92;;;0.20;1.40;;;1.39;100.00;94705.96;646611;212;32680;-72
2021/12/06 04:54:43;;;;;;;1.50;1.40;;;0.20;1.40;;;1.30;100.00;94718.23;618551;226;31886;-74
2021/12/06 04:57:31;;;;;;;3.20;0.90;;;0.30;1.40;;;1.33;100.00;94716.05;646858;216;31580;-74
2021/12/06 05:00:17;;;;;;;2.40;2.20;;;0.30;1.40;;;1.35;100.00;94717.33;646162;212;31542;-73
2021/12/06 05:03:02;;;;;;;1.42;0.73;;;0.30;1.40;;;1.47;100.00;94719.05;648009;216;31775;-74
2021/12/06 05:05:45;;;;;;;1.60;1.20;;;0.30;1.40;;;1.47;100.00;94724.55;646365;216;32091;-74
2021/12/06 05:08:27;;;;;;;4.00;1.30;;;0.30;1.40;;;1.57;100.00;94728.48;647009;212;42509;-73
2021/12/06 05:11:09;;;;;;;1.27;0.90;;;0.40;1.40;;;1.59;100.00;94737.14;647198;212;31732;-74
2021/12/06 05:16:30;;;;;;;2.92;1.73;;;0.40;1.40;;;1.37;100.00;94738.00;601816;233;32282;-74
2021/12/06 05:19:11;;;;;;;1.40;1.40;;;0.30;1.40;;;1.24;100.00;94737.30;647113;216;31606;-74
2021/12/06 05:21:53;;;;;;;3.10;1.30;;;0.30;1.40;;;1.25;100.00;94740.08;645094;216;32440;-74
2021/12/06 05:24:35;;;;;;;2.13;1.93;;;0.30;1.40;;;1.30;100.00;94743.72;646270;212;32035;-74
2021/12/06 05:27:19;;;;;;;2.90;1.50;;;0.30;1.40;;;1.38;100.00;94743.13;646517;216;32414;-74
2021/12/06 05:30:01;;;;;;;1.90;1.33;;;0.30;1.40;;;1.38;100.00;94747.72;646533;216;33692;-74
2021/12/06 05:32:41;;;;;;;1.98;1.70;;;0.30;1.40;;;1.33;100.00;94751.13;647237;212;31693;-74
2021/12/06 05:35:53;;;;;;;1.60;1.10;;;0.30;1.40;;;1.45;100.00;94760.02;645698;216;31673;-74
2021/12/06 05:38:34;;;;;;;1.90;1.60;;;0.30;1.40;;;1.44;100.00;94762.73;646789;212;31635;-74
2021/12/06 05:41:19;;;;;;;1.50;1.08;;;0.30;1.40;;;1.45;100.00;94768.19;646151;216;31545;-74
2021/12/06 05:44:01;;;;;;;1.60;1.20;;;0.30;1.40;;;1.48;100.00;94768.67;646570;216;31726;-74
2021/12/06 05:46:43;;;;;;;1.05;1.00;;;0.30;1.40;;;1.46;100.00;94769.58;647317;216;31601;-74
2021/12/06 05:49:25;;;;;;;3.75;2.08;;;0.30;1.40;;;1.39;100.00;94772.07;646635;216;31630;-74
2021/12/06 05:54:40;;;;;;;5.60;1.75;;;0.30;1.40;;;1.37;100.00;94782.91;646421;216;31559;-74
2021/12/06 05:57:22;;;;;;;1.60;1.25;;;0.30;1.40;;;1.14;100.00;94787.98;646627;216;31554;-73
2021/12/06 06:00:05;;;;;;;3.80;1.40;;;0.30;1.40;;;1.16;100.00;94794.30;619768;225;31938;-76
2021/12/06 06:02:46;;;;;;;2.20;2.00;;;0.30;1.40;;;1.21;100.00;94793.83;647194;212;32228;-74
2021/12/06 06:05:28;;;;;;;1.27;1.10;;;0.20;1.40;;;1.21;100.00;94798.16;640376;216;32211;-74
2021/12/06 06:08:10;;;;;;;2.20;1.70;;;0.20;1.40;;;1.17;100.00;94800.97;646057;216;32101;-73
2021/12/06 06:13:29;;;;;;;1.23;1.12;;;0.30;1.40;;;1.37;100.00;94813.19;647934;216;31587;-72
2021/12/06 06:16:11;;;;;;;1.30;1.20;;;0.40;1.40;;;1.28;100.00;94812.44;646523;216;31576;-74
2021/12/06 06:18:52;;;;;;;1.60;1.30;;;0.40;1.40;;;1.25;100.00;94814.03;646376;216;31712;-73
2021/12/06 06:21:34;;;;;;;1.00;0.90;;;0.30;1.40;;;1.25;100.00;94821.45;647557;212;31510;-75
2021/12/06 06:24:16;;;;;;;1.10;1.00;;;0.30;1.40;;;1.26;100.00;94825.62;645196;212;31552;-73
2021/12/06 06:27:00;;;;;;;2.47;1.60;;;0.30;1.40;;;1.39;100.00;94831.83;646772;216;31590;-73
2021/12/06 06:29:42;;;;;;;2.10;1.90;;;0.40;1.40;;;1.37;100.00;94840.80;646031;212;31540;-74
2021/12/06 06:32:24;;;;;;;1.60;1.40;;;0.40;1.40;;;1.50;100.00;94842.52;619248;226;31905;-74
2021/12/06 06:35:55;;;;;;;1.75;1.65;;;0.40;1.40;;;1.37;100.00;94844.64;645497;216;31626;-74
2021/12/06 06:38:37;;;;;;;1.95;1.20;;;0.40;1.40;;;1.43;100.00;94843.70;646504;212;31631;-74
2021/12/06 06:41:19;;;;;;;3.80;1.85;;;0.40;1.40;;;1.43;100.00;94846.05;647203;216;32223;-74
2021/12/06 06:44:00;;;;;;;2.23;2.03;;;0.40;1.40;;;1.49;100.00;94851.65;647009;216;45094;-73
2021/12/06 06:46:45;;;;;;;1.73;1.62;;;0.40;1.40;;;1.50;100.00;94856.63;646575;216;31589;-74
2021/12/06 06:52:01;;;;;;;1.40;0.90;;;0.40;1.40;;;1.37;100.00;94868.45;646399;216;31912;-74
2021/12/06 06:54:43;;;;;;;1.90;1.80;;;0.40;1.40;;;1.35;100.00;94871.33;645876;212;37241;-74
2021/12/06 06:57:24;;;;;;;1.90;1.80;;;0.40;1.40;;;1.25;100.00;94871.84;647502;216;31667;-74
2021/12/06 07:02:41;;;;;;;2.75;2.62;;;0.30;1.40;;;0.99;100.00;94875.54;645990;216;31563;-72
2021/12/06 07:05:23;;;;;;;3.50;2.40;;;0.20;1.40;;;0.92;100.00;94868.00;639804;216;31716;-74
2021/12/06 07:08:05;;;;;;;2.75;2.15;;;0.30;1.40;;;1.05;100.00;94876.38;646038;216;31571;-73
2021/12/06 07:10:50;;;;;;;1.70;1.60;;;0.30;1.40;;;1.05;100.00;94882.62;646270;212;31649;-74
2021/12/06 07:13:28;;;;;;;1.70;1.40;;;0.30;1.40;;;1.13;100.00;94894.48;646937;216;31801;-73
2021/12/06 07:16:10;;;;;;;3.30;1.70;;;0.20;1.40;;;1.36;100.00;94903.64;646839;212;31779;-74
2021/12/06 07:18:51;;;;;;;2.00;1.90;;;0.30;1.40;;;1.34;100.00;94905.56;647875;212;32083;-73
2021/12/06 07:21:33;;;;;;;2.30;2.10;;;0.30;1.40;;;1.42;100.00;94903.83;647577;212;32372;-74
2021/12/06 07:24:15;;;;;;;2.00;1.03;;;0.30;1.40;;;1.48;100.00;94908.29;647361;216;32197;-74
2021/12/06 07:26:56;;;;;;;1.00;0.88;;;0.30;1.40;;;1.39;100.00;94908.84;646039;216;32194;-73
2021/12/06 07:29:38;;;;;;;3.10;1.20;;;0.40;1.40;;;1.49;100.00;94910.14;646589;212;32102;-74
2021/12/06 07:32:23;;;;;;;1.10;1.00;;;0.40;1.40;;;1.47;100.00;94911.70;646662;216;31857;-73
2021/12/06 07:35:51;;;;;;;1.60;1.50;;;0.40;1.40;;;1.50;100.00;94923.60;646482;216;42191;-74
2021/12/06 07:38:35;;;;;;;1.33;0.95;;;0.50;1.40;;;1.64;100.00;94925.69;646553;216;31516;-74
2021/12/06 07:41:14;;;;;;;2.80;1.40;;;0.50;1.40;;;1.69;100.00;94931.56;645469;216;31550;-74
2021/12/06 07:43:56;;;;;;;1.40;0.90;;;0.60;1.40;;;1.62;100.00;94934.13;646605;212;31853;-74
2021/12/06 07:46:41;;;;;;;1.62;1.20;;;0.60;1.40;;;1.59;100.00;94941.22;647651;216;31524;-73
2021/12/06 07:49:22;;;;;;;3.00;1.30;;;0.60;1.40;;;1.72;100.00;94941.19;646853;216;31996;-74
2021/12/06 07:52:05;;;;;;;4.07;2.58;;;0.60;1.40;;;1.57;100.00;94945.16;642806;218;31653;-74
2021/12/06 07:54:47;;;;;;;1.42;1.12;;;0.60;1.40;;;1.62;100.00;94950.95;646308;216;31592;-74
2021/12/06 07:57:29;;;;;;;6.55;1.37;;;0.60;1.40;;;1.68;100.00;94954.48;646286;216;31566;-74
2021/12/06 08:00:12;;;;;;;2.85;1.52;;;0.60;1.40;;;1.64;100.00;94956.14;620130;222;31888;-74
2021/12/06 08:02:53;;;;;;;3.50;1.87;;;0.60;1.40;;;1.62;100.00;94950.31;646780;212;31565;-74
2021/12/06 08:05:35;;;;;;;1.30;1.10;;;0.60;1.40;;;1.70;100.00;94956.14;646648;216;31576;-74
2021/12/06 08:08:16;;;;;;;3.25;1.80;;;0.60;1.40;;;1.69;100.00;94955.55;646248;216;31600;-73
2021/12/06 08:10:58;;;;;;;2.00;1.60;;;0.60;1.40;;;1.82;100.00;94962.76;646668;216;31535;-73
2021/12/06 08:13:40;;;;;;;1.50;1.40;;;0.70;1.40;;;1.90;100.00;94961.75;646754;216;31630;-73
2021/12/06 08:16:21;;;;;;;2.42;2.33;;;0.70;1.40;;;1.86;100.00;94961.11;646097;216;32047;-74
2021/12/06 08:19:03;;;;;;;3.47;2.78;;;0.80;1.40;;;1.77;100.00;94960.07;647289;216;31910;-74
2021/12/06 08:21:44;;;;;;;2.10;1.80;;;0.70;1.40;;;1.81;100.00;94963.13;646802;212;31661;-73
2021/12/06 08:24:26;;;;;;;3.75;3.00;;;0.70;1.40;;;1.62;100.00;94970.19;646448;212;32152;-73
2021/12/06 08:27:11;;;;;;;3.35;2.28;;;0.70;1.40;;;1.82;100.00;94974.52;648042;216;31620;-73
2021/12/06 08:29:52;;;;;;;2.42;2.03;;;0.80;1.40;;;2.05;100.00;94972.73;645830;216;32182;-74
2021/12/06 08:32:34;;;;;;;3.05;2.03;;;1.00;1.40;;;2.04;100.00;94973.61;647526;216;32115;-73
2021/12/06 08:35:52;;;;;;;3.08;2.87;;;0.90;1.40;;;1.88;100.00;94970.98;645267;216;42417;-74
2021/12/06 08:38:34;;;;;;;5.40;2.58;;;0.80;1.40;;;1.88;100.00;94973.92;647346;216;31610;-74
2021/12/06 08:41:19;;;;;;;1.10;1.08;;;0.80;1.40;;;1.80;100.00;94980.06;647327;213;31576;-74
2021/12/06 08:44:01;;;;;;;3.10;2.20;;;0.80;1.40;;;1.75;100.00;94985.02;646492;216;31669;-73
2021/12/06 08:46:43;;;;;;;1.83;1.58;;;0.90;1.40;;;1.73;100.00;94988.33;645195;216;31571;-74
2021/12/06 08:49:24;;;;;;;3.40;2.65;;;0.80;1.40;;;1.70;100.00;94992.48;646795;216;31583;-74
2021/12/06 08:52:06;;;;;;;2.12;1.45;;;0.80;1.40;;;1.72;100.00;94995.10;646489;216;31521;-73
2021/12/06 08:54:48;;;;;;;4.47;3.40;;;0.80;1.40;;;1.60;100.00;94999.77;646449;212;31797;-73
2021/12/06 08:57:30;;;;;;;1.80;1.70;;;0.70;1.40;;;1.64;100.00;95004.66;647034;212;35356;-74
2021/12/06 09:00:14;;;;;;;2.85;1.70;;;0.80;1.40;;;1.68;100.00;95008.33;645794;216;32198;-73
2021/12/06 09:02:55;;;;;;;2.70;2.37;;;0.80;1.40;;;1.76;100.00;95015.00;646395;212;31611;-74
2021/12/06 09:05:37;;;;;;;1.83;1.27;;;0.90;1.40;;;1.62;100.00;95018.11;638229;216;31727;-73
2021/12/06 09:08:20;;;;;;;3.28;1.67;;;0.90;1.40;;;1.65;100.00;95018.98;646847;216;31607;-73
2021/12/06 09:11:01;;;;;;;2.22;1.30;;;1.00;1.40;;;1.69;100.00;95020.62;646277;212;31963;-73
2021/12/06 09:13:43;;;;;;;2.23;1.67;;;0.90;1.40;;;1.99;100.00;95023.14;620088;222;33296;-74
2021/12/06 09:16:25;;;;;;;2.67;1.90;;;1.10;1.40;;;2.19;100.00;95027.42;646464;216;32189;-74
2021/12/06 09:19:06;;;;;;;3.42;1.90;;;1.20;1.40;;;2.11;100.00;95023.81;646458;212;32258;-76
2021/12/06 09:24:22;;;;;;;3.12;1.30;;;1.10;1.40;;;1.93;100.00;95030.50;646995;216;31561;-74
2021/12/06 09:27:04;;;;;;;3.65;2.28;;;1.10;1.40;;;1.91;100.00;95030.22;646713;216;31571;-74
2021/12/06 09:29:46;;;;;;;3.85;1.95;;;1.00;1.40;;;2.00;100.00;95030.90;618907;226;31884;-74
2021/12/06 09:32:28;;;;;;;3.37;2.75;;;1.10;1.40;;;2.05;100.00;95025.23;646110;216;31597;-74
2021/12/06 09:35:53;;;;;;;3.03;2.05;;;1.00;1.40;;;2.12;100.00;95019.38;646563;216;33283;-74
2021/12/06 09:38:37;;;;;;;2.50;2.30;;;1.20;1.40;;;2.43;100.00;95022.25;647966;212;32203;-74
2021/12/06 09:41:21;;;;;;;1.73;1.62;;;1.30;1.40;;;1.93;100.00;95017.08;645959;212;32213;-74
2021/12/06 09:43:59;;;;;;;2.97;1.10;;;1.10;1.40;;;1.81;100.00;95018.81;646824;216;31585;-73
2021/12/06 09:46:44;;;;;;;3.00;1.60;;;1.00;1.40;;;1.72;100.00;95019.20;646479;216;31714;-74
2021/12/06 09:49:26;;;;;;;2.78;2.47;;;1.00;1.40;;;1.81;100.00;95019.08;647020;212;31543;-72
2021/12/06 09:52:07;;;;;;;2.47;2.28;;;1.00;1.40;;;1.72;100.00;95022.78;646708;212;31682;-74
2021/12/06 09:54:50;;;;;;;3.70;1.90;;;0.90;1.40;;;1.83;100.00;95021.82;648197;216;31721;-74
2021/12/06 09:57:34;;;;;;;3.65;2.42;;;1.00;1.40;;;2.08;100.00;95020.75;645347;212;31645;-73
2021/12/06 10:00:16;;;;;;;3.20;2.20;;;1.40;1.40;;;2.37;100.00;95018.52;645987;216;31563;-75
2021/12/06 10:02:58;;;;;;;4.00;1.37;;;1.80;1.40;;;2.51;100.00;95018.90;647644;212;31551;-73
2021/12/06 10:05:40;;;;;;;2.40;2.30;;;1.90;1.40;;;3.10;100.00;95017.38;638243;216;31900;-74
2021/12/06 10:08:21;;;;;;;2.70;2.50;;;2.70;1.40;;;3.55;100.00;95025.23;645226;212;32160;-73
2021/12/06 10:11:03;;;;;;;1.60;1.50;;;2.70;1.40;;;3.63;100.00;95028.70;615644;227;31909;-74
2021/12/06 10:13:45;;;;;;;1.23;1.12;;;2.20;1.40;;;2.83;100.00;95026.22;646729;216;31598;-74
2021/12/06 10:16:26;;;;;;;2.20;1.50;;;1.50;1.40;;;2.42;100.00;95023.95;646329;212;31610;-74
2021/12/06 10:19:08;;;;;;;2.50;1.95;;;1.40;1.40;;;2.31;100.00;95019.30;647017;216;31547;-74
2021/12/06 10:21:50;;;;;;;2.30;2.10;;;1.40;1.40;;;2.16;100.00;95016.82;646702;216;31722;-72
2021/12/06 10:24:31;;;;;;;0.93;0.93;;;1.50;1.40;;;2.08;100.00;95012.30;645988;216;31686;-74
2021/12/06 10:27:16;;;;;;;4.20;2.00;;;1.30;1.40;;;2.25;100.00;95008.91;645272;216;32989;-74
2021/12/06 10:30:01;;;;;;;3.40;2.65;;;1.30;1.40;;;2.25;100.00;95013.30;648218;212;31611;-74
2021/12/06 10:32:41;;;;;;;2.20;1.37;;;1.20;1.40;;;2.17;100.00;95009.02;620861;222;31876;-74
2021/12/06 10:35:54;;;;;;;3.00;2.22;;;1.30;1.40;;;2.14;100.00;95007.99;647530;216;42408;-74
2021/12/06 10:38:38;;;;;;;3.30;1.50;;;1.30;1.40;;;2.09;100.00;95013.86;647060;216;31564;-74
2021/12/06 10:41:21;;;;;;;1.70;1.07;;;1.30;1.40;;;2.01;100.00;95011.98;646248;216;33517;-76
2021/12/06 10:44:10;;;;;;;3.15;1.27;;;1.30;1.40;;;2.17;100.00;95011.42;622236;225;31938;-76
2021/12/06 10:46:58;;;;;;;3.60;2.17;;;1.20;1.40;;;2.21;100.00;95012.77;648208;216;31874;-76
2021/12/06 10:49:39;;;;;;;;;;;1.30;1.40;;;2.15;100.00;95008.42;652253;216;24972;-75
2021/12/06 10:52:26;;;;;;;;;;;1.20;1.40;;;2.05;100.00;95009.99;655427;216;24804;-77
2021/12/06 10:55:06;;;;;;;;;;;1.20;1.40;;;2.00;100.00;95010.21;649990;216;24864;-76
2021/12/06 10:57:51;;;;;;;;;;;1.20;1.40;;;2.04;100.00;95014.72;652826;212;24833;-76
2021/12/06 11:00:32;;;;;;;;;;;1.30;1.40;;;2.14;100.00;95008.42;654188;212;25551;-76
2021/12/06 11:03:26;;;;;;;;;;;1.40;1.40;;;2.27;100.00;95016.51;651566;212;24819;-76
2021/12/06 11:06:09;;;;;;;;;;;1.40;1.40;;;2.13;100.00;95019.00;654316;212;24756;-75
2021/12/06 11:08:49;;;;;;;;;;;1.30;1.40;;;2.25;100.00;95018.11;652958;212;25482;-76
2021/12/06 11:11:31;;;;;;;;;;;1.30;1.40;;;2.31;100.00;95016.09;655080;212;24814;-76
2021/12/06 11:14:16;;;;;;;;;;;1.40;1.40;;;2.35;100.00;95013.80;655124;212;24720;-76
2021/12/06 11:17:14;;;;;;;;;;;1.60;1.40;;;2.55;100.00;95014.63;651676;216;24722;-76
2021/12/06 11:19:57;;;;;;;;;;;1.70;1.40;;;2.57;100.00;95019.44;652820;212;24909;-76
2021/12/06 11:22:38;;;;;;;;;;;1.50;1.40;;;2.37;100.00;95019.48;623212;225;25687;-76
2021/12/06 11:25:21;;;;;;;;;;;1.30;1.40;;;2.51;100.00;95019.64;653978;216;24840;-76
2021/12/06 11:28:02;;;;;;;;;;;1.50;1.40;;;2.34;100.00;95024.13;653623;216;25115;-76
2021/12/06 11:30:43;;;;;;;;;;;1.50;1.40;;;2.40;100.00;95020.18;653722;212;24818;-76
2021/12/06 11:35:51;;;;;;;3.70;2.30;;;1.50;1.40;;;2.45;100.00;95016.16;645886;212;31575;-76
2021/12/06 11:38:33;;;;;;;3.50;3.20;;;1.40;1.40;;;2.45;100.00;95021.88;648313;212;42623;-76
2021/12/06 11:41:15;;;;;;;3.85;2.30;;;1.60;1.40;;;2.52;100.00;95017.83;644130;212;32157;-76
2021/12/06 11:43:57;;;;;;;;;;;1.70;1.40;;;2.58;100.00;95017.47;652294;212;24836;-76
2021/12/06 11:46:38;;;;;;;;;;;1.70;1.40;;;2.66;100.00;95009.75;654912;216;24910;-76
2021/12/06 11:49:22;;;;;;;;;;;1.70;1.40;;;2.86;100.00;95009.90;655037;216;24799;-76
2021/12/06 11:52:03;;;;;;;;;;;1.80;1.40;;;2.96;100.00;95014.13;648932;216;24874;-75
2021/12/06 11:54:50;;;;;;;;;;;1.90;1.40;;;2.99;100.00;95011.43;654149;216;24894;-76
2021/12/06 11:57:32;;;;;;;;;;;1.90;1.40;;;3.52;100.00;95013.05;653298;216;25572;-77
2021/12/06 12:00:15;;;;;;;;;;;2.30;1.40;;;3.53;100.00;95011.94;652886;216;24803;-76
2021/12/06 12:02:57;;;;;;;;;;;2.30;1.40;;;3.37;100.00;95016.71;655473;216;25121;-76
2021/12/06 12:05:38;;;;;;;;;;;2.10;1.40;;;3.10;100.00;95021.39;644848;212;25078;-76
2021/12/06 12:08:20;;;;;;;;;;;1.90;1.40;;;3.41;100.00;95018.74;654744;212;24815;-75
2021/12/06 12:11:01;;;;;;;;;;;2.10;1.40;;;3.43;100.00;95024.47;652650;216;24846;-75
2021/12/06 12:13:43;;;;;;;;;;;2.20;1.40;;;3.40;100.00;95026.73;653361;216;24722;-76
2021/12/06 12:16:24;;;;;;;;;;;2.20;1.40;;;3.41;100.00;95025.17;653887;216;24805;-76
2021/12/06 12:19:07;;;;;;;;;;;2.20;1.40;;;3.59;100.00;95029.41;653387;212;24798;-74
2021/12/06 12:21:48;;;;;;;;;;;2.20;1.40;;;3.48;100.00;95027.31;653054;216;24745;-76
2021/12/06 12:24:31;;;;;;;;;;;2.20;1.40;;;3.05;100.00;95030.23;653968;212;25479;-76
2021/12/06 12:27:24;;;;;;;;;;;1.90;1.40;;;3.11;100.00;95027.17;655401;212;25170;-76
2021/12/06 12:29:59;;;;;;;;;;;2.00;1.40;;;3.38;100.00;95022.98;654565;212;24823;-76
2021/12/06 12:32:41;;;;;;;;;;;2.10;1.40;;;3.45;100.00;95024.31;654207;216;24995;-76